Home > Products > Valid Products > TAF

000
FTUS43 KJKL 292336
TAFJKL
TAF
KJKL 292336Z 3000/3024 VRB03KT P6SM SCT200
     FM300600 00000KT P6SM BKN090
     FM301400 VRB03KT P6SM VCSH SCT050 OVC080
     FM301800 17008KT 4SM -SHRA VCTS OVC040CB=



000
FTUS43 KJKL 292336
TAFSME
TAF
KSME 292336Z 3000/3024 VRB04KT P6SM BKN250
     FM300700 07004KT P6SM SCT080 BKN130
     FM301200 VRB03KT P6SM VCSH SCT050 OVC100
     FM301500 13007KT 4SM -SHRA VCTS BKN040CB OVC070=



000
FTUS43 KJKL 292336
TAFLOZ
TAF
KLOZ 292336Z 3000/3024 VRB04KT P6SM BKN250
     FM300700 06004KT P6SM SCT080 BKN130
     FM301400 14004KT P6SM VCSH SCT050 OVC100
     FM301800 19007KT 4SM -SHRA VCTS OVC040CB=



000
FTUS43 KJKL 292153 AAA
TAFSME
TAF AMD
KSME 292153Z 2922/3018 30006KT P6SM BKN250
     FM300000 35004KT P6SM FEW080 BKN250
     FM301000 05003KT 6SM BR VCSH BKN070
     FM301200 05005KT 5SM -SHRA BR BKN050=



000
FTUS43 KJKL 291720
TAFJKL
TAF
KJKL 291720Z 2918/3018 00000KT P6SM FEW090 BKN250
     FM300300 00000KT P6SM BKN090
     FM301100 00000KT P6SM VCSH OVC050
     FM301300 05005KT 5SM -SHRA BR BKN050=



000
FTUS43 KJKL 291720
TAFLOZ
TAF
KLOZ 291720Z 2918/3018 25004KT P6SM FEW090 BKN250
     FM300300 00000KT P6SM BKN090
     FM301000 05003KT 6SM BR VCSH BKN070
     FM301300 05005KT 5SM -SHRA BR BKN050=



000
FTUS43 KJKL 291720
TAFSME
TAF
KSME 291720Z 2918/3018 00000KT P6SM BKN250
     FM300000 35004KT P6SM FEW080 BKN250
     FM301000 05003KT 6SM BR VCSH BKN070
     FM301200 05005KT 5SM -SHRA BR BKN050=



000
FTUS43 KJKL 291211 AAA
TAFSME
TAF AMD
KSME 291211Z 2912/3012 VRB06KT P6SM SCT250
     FM300000 35004KT P6SM BKN250
     FM300900 05003KT 6SM BR VCSH OVC050=



000
FTUS43 KJKL 291211 AAA
TAFLOZ
TAF AMD
KLOZ 291211Z 2912/3012 VRB06KT P6SM SCT250
     FM300300 00000KT P6SM BKN090
     FM301000 05003KT 6SM BR VCSH OVC050=



000
FTUS43 KJKL 291211 AAA
TAFSME
TAF AMD
KSME 291211Z 2912/3012 VRB06KT P6SM SCT250
     FM300000 35004KT P6SM BKN250
     FM300900 05003KT 6SM BR VCSH OVC050=



000
FTUS43 KJKL 291211 AAA
TAFLOZ
TAF AMD
KLOZ 291211Z 2912/3012 VRB06KT P6SM SCT250
     FM300300 00000KT P6SM BKN090
     FM301000 05003KT 6SM BR VCSH OVC050=



000
FTUS43 KJKL 291143 CCA
TAFSME
TAF COR
KSME 291143Z 2912/3012 00000KT 6SM BR SCT250
     FM291300 VRB06KT P6SM SCT250
     FM300000 35004KT P6SM BKN250
     FM300900 05003KT 6SM BR VCSH OVC050=



000
FTUS43 KJKL 291138
TAFSME
TAF
KSME 291138Z 2912/3012 00000KT 4SM BR SCT250
     FM292000 29006KT P6SM SCT250
     FM300000 35004KT P6SM BKN250
     FM300900 05003KT 6SM BR VCSH OVC050=



000
FTUS43 KJKL 291138
TAFJKL
TAF
KJKL 291138Z 2912/3012 VRB03KT P6SM FEW250
     FM300300 00000KT P6SM BKN090
     FM300800 00000KT P6SM OVC050=



000
FTUS43 KJKL 291138
TAFLOZ
TAF
KLOZ 291138Z 2912/3012 00000KT 4SM BR FEW250
     FM291300 VRB06KT P6SM SCT250
     FM300300 00000KT P6SM BKN090
     FM301000 05003KT 6SM BR VCSH OVC050=



000
FTUS43 KJKL 291138
TAFSME
TAF
KSME 291138Z 2912/3012 00000KT 4SM BR SCT250
     FM292000 29006KT P6SM SCT250
     FM300000 35004KT P6SM BKN250
     FM300900 05003KT 6SM BR VCSH OVC050=



000
FTUS43 KJKL 291138
TAFLOZ
TAF
KLOZ 291138Z 2912/3012 00000KT 4SM BR FEW250
     FM291300 VRB06KT P6SM SCT250
     FM300300 00000KT P6SM BKN090
     FM301000 05003KT 6SM BR VCSH OVC050=



000
FTUS43 KJKL 291138
TAFJKL
TAF
KJKL 291138Z 2912/3012 VRB03KT P6SM FEW250
     FM300300 00000KT P6SM BKN090
     FM300800 00000KT P6SM OVC050=



000
FTUS43 KJKL 291115 AAA
TAFLOZ
TAF AMD
KLOZ 291115Z 2911/3006 00000KT 4SM BR FEW250
     FM291300 VRB06KT P6SM SCT250
     FM300300 00000KT P6SM BKN090=



000
FTUS43 KJKL 290538
TAFSME
TAF
KSME 290538Z 2906/3006 00000KT 6SM BR FEW250
     FM291000 00000KT 4SM BR SCT250
     FM292000 29006KT P6SM SCT250
     FM300000 35004KT P6SM BKN250=



000
FTUS43 KJKL 290538
TAFLOZ
TAF
KLOZ 290538Z 2906/3006 00000KT P6SM FEW250
     FM291130 00000KT 4SM BR FEW250
     FM291300 VRB06KT P6SM SCT250
     FM300300 00000KT P6SM BKN090=



000
FTUS43 KJKL 290538
TAFJKL
TAF
KJKL 290538Z 2906/3006 VRB03KT P6SM FEW250
     FM300300 00000KT P6SM BKN090=



000
FTUS43 KJKL 282337
TAFSME
TAF
KSME 282337Z 2900/2924 27007KT P6SM SCT050
     FM290700 00000KT 2SM BR SKC
     FM291300 VRB04KT P6SM SCT250=



000
FTUS43 KJKL 282337
TAFJKL
TAF
KJKL 282337Z 2900/2924 VRB04KT P6SM SKC=



000
FTUS43 KJKL 282337
TAFLOZ
TAF
KLOZ 282337Z 2900/2924 27008KT P6SM SKC
     FM290600 00000KT 4SM BR SKC
     FM291300 VRB04KT P6SM SCT250=



000
FTUS43 KJKL 282337
TAFLOZ
TAF
KLOZ 282337Z 2900/2924 27008KT P6SM SKC
     FM290600 00000KT 4SM BR SKC
     FM291300 VRB04KT P6SM SCT250=



000
FTUS43 KJKL 282337
TAFSME
TAF
KSME 282337Z 2900/2924 27007KT P6SM SCT050
     FM290700 00000KT 2SM BR SKC
     FM291300 VRB04KT P6SM SCT250=



000
FTUS43 KJKL 282337
TAFJKL
TAF
KJKL 282337Z 2900/2924 VRB04KT P6SM SKC=



000
FTUS43 KJKL 281845 AAA
TAFJKL
TAF AMD
KJKL 281845Z 2819/2918 26008G14KT P6SM VCTS FEW027CB FEW060
     FM282300 26006KT P6SM SCT050 SCT200=



000
FTUS43 KJKL 281845 AAA
TAFSME
TAF AMD
KSME 281845Z 2819/2918 24007KT P6SM VCTS SCT045CB
     FM282200 27006KT P6SM SCT050 SCT250
     FM290400 00000KT 4SM BR FEW250=



000
FTUS43 KJKL 281845 AAA
TAFJKL
TAF AMD
KJKL 281845Z 2819/2918 26008G14KT P6SM VCTS FEW027CB FEW060
     FM282300 26006KT P6SM SCT050 SCT200=



000
FTUS43 KJKL 281720
TAFLOZ
TAF
KLOZ 281720Z 2818/2918 25010KT P6SM VCTS BKN035CB
     FM282200 26010KT P6SM SCT050 SCT200
     FM290500 VRB03KT 4SM BR SCT250=



000
FTUS43 KJKL 281720
TAFJKL
TAF
KJKL 281720Z 2818/2918 VRB04KT P6SM VCTS FEW023CB BKN035
     FM282300 26006KT P6SM SCT050 SCT200=



000
FTUS43 KJKL 281720
TAFSME
TAF
KSME 281720Z 2818/2918 26009G17KT P6SM VCTS BKN029CB
     FM282200 27006KT P6SM SCT050 SCT250
     FM290400 00000KT 4SM BR FEW250=



000
FTUS43 KJKL 281321 AAD
TAFJKL
TAF AMD
KJKL 281321Z 2813/2912 VRB03KT P6SM SCT001 BKN060
      TEMPO 2813/2814 3/4SM BR
     FM281600 24008G18KT P6SM VCTS BKN040CB OVC080
     FM282300 26006KT P6SM SCT200=



000
FTUS43 KJKL 281251 AAC
TAFJKL
TAF AMD
KJKL 281251Z 2813/2912 00000KT 1/4SM FG VV004
      TEMPO 2813/2814 3/4SM BR
     FM281600 24008G18KT P6SM VCTS BKN040CB OVC080
     FM282300 26006KT P6SM SCT200=



000
FTUS43 KJKL 281139
TAFLOZ
TAF
KLOZ 281139Z 2812/2912 VRB06KT P6SM VCTS BKN030CB
     FM281600 25009G18KT P6SM VCTS SCT035CB BKN070
     FM282200 26010KT P6SM SCT200
     FM290500 VRB03KT 4SM BR SCT250=



000
FTUS43 KJKL 281139
TAFJKL
TAF
KJKL 281139Z 2812/2912 21005KT 6SM -SHRA BR VCTS BKN030CB
      TEMPO 2812/2814 3/4SM BR
     FM281600 24008G18KT P6SM VCTS BKN040CB OVC080
     FM282300 26006KT P6SM SCT200=



000
FTUS43 KJKL 281139
TAFSME
TAF
KSME 281139Z 2812/2912 20005KT 6SM -SHRA BR VCTS BKN025CB
     FM281300 23008KT P6SM BKN025
     FM281600 24010G20KT P6SM VCTS SCT035CB BKN060
     FM282200 27006KT P6SM SCT250
     FM290400 00000KT 4SM BR FEW250=



000
FTUS43 KJKL 281058 AAC
TAFJKL
TAF AMD
KJKL 281058Z 2811/2906 VRB06KT 2SM -SHRA BR VCTS SCT025 OVC035CB
     FM281230 VRB03KT P6SM VCTS OVC035CB
     FM281600 23005KT P6SM VCTS BKN030CB
     FM282000 26009KT P6SM VCSH SCT090
     FM282200 26008KT P6SM SCT130=



000
FTUS43 KJKL 281058 AAC
TAFJKL
TAF AMD
KJKL 281058Z 2811/2906 VRB06KT 2SM -SHRA BR VCTS SCT025 OVC035CB
     FM281230 VRB03KT P6SM VCTS OVC035CB
     FM281600 23005KT P6SM VCTS BKN030CB
     FM282000 26009KT P6SM VCSH SCT090
     FM282200 26008KT P6SM SCT130=



000
FTUS43 KJKL 280733 CCB
TAFJKL
TAF COR
KJKL 280733Z 2808/2906 VRB06KT 3/4SM BR VCTS BKN002 OVC035CB
     FM280900 VRB03KT P6SM VCTS OVC035CB
     FM281400 23005KT P6SM -SGRA VCTS BKN030CB
     FM282000 26009KT P6SM VCSH SCT090
     FM282200 26008KT P6SM SCT130=



000
FTUS43 KJKL 280732 AAA
TAFJKL
TAF AMD
KJKL 280732Z 2808/2906 VRB06G18KT 3/4SM BR VCTS BKN002 OVC035CB
     FM280900 VRB03KT P6SM VCTS OVC035CB
     FM281400 23005KT P6SM -SGRA VCTS BKN030CB
     FM282000 26009KT P6SM VCSH SCT090
     FM282200 26008KT P6SM SCT130=



000
FTUS43 KJKL 280732 CCA
TAFJKL
TAF COR
KJKL 280732Z 2808/2906 VRB06KT 3/4SM BR VCTS BKN002 OVC035CB
     FM280900 VRB03KT P6SM VCTS OVC035CB
     FM281400 23005KT P6SM -SGRA VCTS BKN030CB
     FM282000 26009KT P6SM VCSH SCT090
     FM282200 26008KT P6SM SCT130=



000
FTUS43 KJKL 280732 CCA
TAFJKL
TAF COR
KJKL 280732Z 2808/2906 VRB06KT 3/4SM BR VCTS BKN002 OVC035CB
     FM280900 VRB03KT P6SM VCTS OVC035CB
     FM281400 23005KT P6SM -SGRA VCTS BKN030CB
     FM282000 26009KT P6SM VCSH SCT090
     FM282200 26008KT P6SM SCT130=



000
FTUS43 KJKL 280539
TAFSME
TAF
KSME 280539Z 2806/2906 00000KT P6SM VCTS OVC025CB
     FM280700 21004KT P6SM VCTS OVC060CB
     FM281300 22007KT P6SM VCTS BKN030CB
     FM281500 23008KT P6SM VCSH BKN040
     FM281800 24010KT P6SM SCT110
     FM290400 00000KT P6SM FEW250=



000
FTUS43 KJKL 280539
TAFLOZ
TAF
KLOZ 280539Z 2806/2906 00000KT 3SM SHRA BR OVC020
     FM280700 20004KT P6SM VCTS OVC035CB
     FM281400 22007KT P6SM -SHRA VCTS BKN030CB
     FM281600 23008KT P6SM VCSH BKN040
     FM282000 25011KT P6SM SCT120
     FM290400 00000KT P6SM SCT200=



000
FTUS43 KJKL 280539
TAFJKL
TAF
KJKL 280539Z 2806/2906 VRB06G18KT 3SM TSRA BR SCT015 OVC030CB
     FM280730 VRB03KT P6SM VCTS OVC035CB
     FM281400 23005KT P6SM -SGRA VCTS BKN030CB
     FM282000 26009KT P6SM VCSH SCT090
     FM282200 26008KT P6SM SCT130=



000
FTUS43 KJKL 280539
TAFSME
TAF
KSME 280539Z 2806/2906 00000KT P6SM VCTS OVC025CB
     FM280700 21004KT P6SM VCTS OVC060CB
     FM281300 22007KT P6SM VCTS BKN030CB
     FM281500 23008KT P6SM VCSH BKN040
     FM281800 24010KT P6SM SCT110
     FM290400 00000KT P6SM FEW250=



000
FTUS43 KJKL 280539
TAFJKL
TAF
KJKL 280539Z 2806/2906 VRB06G18KT 3SM TSRA BR SCT015 OVC030CB
     FM280730 VRB03KT P6SM VCTS OVC035CB
     FM281400 23005KT P6SM -SGRA VCTS BKN030CB
     FM282000 26009KT P6SM VCSH SCT090
     FM282200 26008KT P6SM SCT130=



000
FTUS43 KJKL 280539
TAFLOZ
TAF
KLOZ 280539Z 2806/2906 00000KT 3SM SHRA BR OVC020
     FM280700 20004KT P6SM VCTS OVC035CB
     FM281400 22007KT P6SM -SHRA VCTS BKN030CB
     FM281600 23008KT P6SM VCSH BKN040
     FM282000 25011KT P6SM SCT120
     FM290400 00000KT P6SM SCT200=



000
FTUS43 KJKL 280425 AAB
TAFJKL
TAF AMD
KJKL 280425Z 2804/2824 VRB03KT 6SM BR VCTS SCT030CB BKN070 OVC100
     FM280500 VRB10G22KT 4SM TSRA BR SCT010 BKN025CB OVC050
     FM280630 14004KT 4SM SHRA BR VCTS SCT020CB OVC050
     FM280900 VRB04KT 6SM BR VCTS FEW020CB BKN030
     FM281100 00000KT 2SM BR BKN010
     FM281500 VRB03KT P6SM BKN015=



000
FTUS43 KJKL 280422 AAA
TAFLOZ
TAF AMD
KLOZ 280422Z 2804/2824 VRB10G25KT 2SM TSRA BR SCT020 BKN035CB
      OVC050
     FM280600 18003KT 4SM SHRA BR VCTS SCT020CB OVC050
     FM281000 22005KT 1SM BR OVC010
     FM281500 23010KT P6SM OVC015=



000
FTUS43 KJKL 280246 AAB
TAFJKL
TAF AMD
KJKL 280246Z 2803/2824 VRB03KT 6SM BR VCTS SCT030CB BKN070 OVC100
      TEMPO 2803/2804 1/4SM FG BKN006 BKN080
     FM280500 14004KT 4SM SHRA BR VCTS SCT020CB OVC050
     FM280900 VRB04KT 6SM BR VCTS FEW020CB BKN030
     FM281100 00000KT 2SM BR BKN010
     FM281500 VRB03KT P6SM BKN015=



000
FTUS43 KJKL 280246 AAB
TAFJKL
TAF AMD
KJKL 280246Z 2803/2824 VRB03KT 6SM BR VCTS SCT030CB BKN070 OVC100
      TEMPO 2803/2804 1/4SM FG BKN006 BKN080
     FM280500 14004KT 4SM SHRA BR VCTS SCT020CB OVC050
     FM280900 VRB04KT 6SM BR VCTS FEW020CB BKN030
     FM281100 00000KT 2SM BR BKN010
     FM281500 VRB03KT P6SM BKN015=



000
FTUS43 KJKL 280059 AAA
TAFJKL
TAF AMD
KJKL 280059Z 2801/2824 VRB03KT 6SM BR VCSH SCT030 BKN070 OVC100
      TEMPO 2801/2804 1/4SM FG BKN006 BKN080
     FM280500 14004KT 4SM SHRA BR VCTS SCT020CB OVC050
     FM280900 VRB04KT 6SM BR VCTS FEW020CB BKN030
     FM281100 00000KT 2SM BR BKN010
     FM281500 VRB03KT P6SM BKN015=



000
FTUS43 KJKL 272339
TAFJKL
TAF
KJKL 272339Z 2800/2824 VRB03KT 4SM BR VCTS SCT030CB BKN070 OVC100
      TEMPO 2800/2804 1/4SM FG BKN006 BKN080
     FM280500 14004KT 4SM SHRA BR VCTS SCT020CB OVC050
     FM280900 VRB04KT 6SM BR VCTS FEW020CB BKN030
     FM281100 00000KT 2SM BR BKN010
     FM281500 VRB03KT P6SM BKN015=



000
FTUS43 KJKL 272339
TAFLOZ
TAF
KLOZ 272339Z 2800/2824 02004KT 6SM SHRA BR VCTS SCT050CB BKN070
      TEMPO 2800/2801 4SM TS BKN050CB
     FM280400 18003KT 4SM SHRA BR VCTS SCT020CB OVC050
     FM281000 22005KT 1SM BR OVC010
     FM281500 23010KT P6SM OVC015=



000
FTUS43 KJKL 272339
TAFSME
TAF
KSME 272339Z 2800/2824 04007KT P6SM VCTS SCT030CB OVC050
     FM280300 21004KT 4SM SHRA BR VCTS SCT020CB OVC050
     FM281000 22004KT 1SM BR OVC010
     FM281500 23010KT P6SM OVC015=



000
FTUS43 KJKL 271727
TAFSME
TAF
KSME 271727Z 2718/2818 08003KT P6SM VCTS SCT019CB SCT028 OVC035
     FM271900 VRB03KT 6SM -SHRA VCTS FEW015CB BKN035 OVC100
     FM280000 14004KT 3SM SHRA VCTS SCT030CB OVC050
     FM280600 18004KT P6SM SHRA VCTS SCT020CB OVC035
     FM281200 VRB04KT P6SM VCTS FEW025CB BKN040=



000
FTUS43 KJKL 271727
TAFJKL
TAF
KJKL 271727Z 2718/2818 00000KT P6SM VCTS FEW014CB SCT035 BKN100
     FM271830 VRB03KT 6SM -SHRA VCTS FEW015CB BKN035 OVC100
     FM280100 VRB04KT 3SM SHRA VCTS SCT030CB OVC050
     FM280500 14004KT 5SM SHRA VCTS SCT020CB OVC035
     FM281200 VRB04KT P6SM VCTS FEW025CB BKN040=



000
FTUS43 KJKL 271727
TAFLOZ
TAF
KLOZ 271727Z 2718/2818 10004KT P6SM VCTS OVC026CB
     FM271900 VRB03KT 6SM -SHRA VCTS FEW015CB BKN035 OVC100
     FM280000 14004KT 3SM SHRA VCTS SCT030CB OVC050
     FM280600 18004KT P6SM SHRA VCTS SCT020CB OVC035
     FM281200 VRB04KT P6SM VCTS FEW025CB BKN040=



000
FTUS43 KJKL 271519 AAC
TAFLOZ
TAF AMD
KLOZ 271519Z 2715/2812 08004KT 3SM -RA BR VCSH FEW040 BKN060 OVC100
     FM271600 23006KT P6SM VCTS BKN050CB
     FM280000 14004KT 3SM SHRA OVC050
     FM280600 18004KT P6SM VCSH OVC070=



000
FTUS43 KJKL 271459 AAB
TAFLOZ
TAF AMD
KLOZ 271459Z 2715/2812 00000KT 1 1/2SM RA BR VCSH FEW040 BKN080
      OVC100
     FM271600 23006KT P6SM VCTS BKN050CB
     FM280000 14004KT 3SM SHRA OVC050
     FM280600 18004KT P6SM VCSH OVC070=



000
FTUS43 KJKL 271430 AAA
TAFLOZ
TAF AMD
KLOZ 271430Z 2715/2812 26006KT 3SM RA VCSH SCT016 BKN035 OVC090
     FM271600 23006KT P6SM VCTS BKN050CB
     FM280000 14004KT 3SM SHRA OVC050
     FM280600 18004KT P6SM VCSH OVC070=



000
FTUS43 KJKL 271131
TAFSME
TAF
KSME 271131Z 2712/2812 VRB06KT 6SM -SHRA BR VCTS BKN035CB OVC090
     FM271600 23007KT P6SM VCTS BKN050CB
     FM280000 14004KT 3SM SHRA OVC050
     FM280500 18004KT P6SM VCSH OVC070=



000
FTUS43 KJKL 271131
TAFLOZ
TAF
KLOZ 271131Z 2712/2812 VRB06KT P6SM VCSH OVC070
     FM271600 23006KT P6SM VCTS BKN050CB
     FM280000 14004KT 3SM SHRA OVC050
     FM280600 18004KT P6SM VCSH OVC070=



000
FTUS43 KJKL 271131
TAFJKL
TAF
KJKL 271131Z 2712/2812 VRB06KT P6SM VCSH OVC050
     FM271700 24004KT P6SM VCTS BKN050CB
     FM280100 VRB04KT 3SM SHRA OVC050
     FM280500 14004KT P6SM VCSH OVC070=



000
FTUS43 KJKL 270529
TAFLOZ
TAF
KLOZ 270529Z 2706/2806 VRB05KT P6SM VCTS OVC050CB
     FM270800 VRB05KT P6SM -SHRA OVC090
     FM271300 20004KT P6SM OVC045
     FM271800 24006KT P6SM VCTS OVC040CB
     FM280200 VRB03KT 3SM -SHRA OVC035=



000
FTUS43 KJKL 270529
TAFSME
TAF
KSME 270529Z 2706/2806 VRB05KT P6SM VCTS OVC070CB
     FM270800 VRB05KT P6SM -SHRA OVC040
     FM271300 20004KT P6SM OVC045
     FM271700 23007KT P6SM VCTS OVC040CB
     FM280100 14004KT 3SM -SHRA BKN035=



000
FTUS43 KJKL 270529
TAFJKL
TAF
KJKL 270529Z 2706/2806 VRB05KT 6SM BR VCTS OVC070CB
     FM270900 VRB05KT P6SM -SHRA OVC070
     FM271300 20004KT P6SM OVC045
     FM272200 VRB03KT P6SM VCTS BKN040CB
     FM280200 VRB03KT 3SM -SHRA OVC035=



000
FTUS43 KJKL 270529
TAFJKL
TAF
KJKL 270529Z 2706/2806 VRB05KT 6SM BR VCTS OVC070CB
     FM270900 VRB05KT P6SM -SHRA OVC070
     FM271300 20004KT P6SM OVC045
     FM272200 VRB03KT P6SM VCTS BKN040CB
     FM280200 VRB03KT 3SM -SHRA OVC035=



000
FTUS43 KJKL 270529
TAFLOZ
TAF
KLOZ 270529Z 2706/2806 VRB05KT P6SM VCTS OVC050CB
     FM270800 VRB05KT P6SM -SHRA OVC090
     FM271300 20004KT P6SM OVC045
     FM271800 24006KT P6SM VCTS OVC040CB
     FM280200 VRB03KT 3SM -SHRA OVC035=



000
FTUS43 KJKL 270529
TAFSME
TAF
KSME 270529Z 2706/2806 VRB05KT P6SM VCTS OVC070CB
     FM270800 VRB05KT P6SM -SHRA OVC040
     FM271300 20004KT P6SM OVC045
     FM271700 23007KT P6SM VCTS OVC040CB
     FM280100 14004KT 3SM -SHRA BKN035=



    US Dept of Commerce
    National Oceanic and Atmospheric Administration
    National Weather Service
    1325 East West Highway
    Silver Spring, MD 20910
    Page Author: NWS Internet Services Team
Disclaimer
Information Quality
Credits
Glossary
Privacy Policy
Freedom of Information Act (FOIA)
About Us
Career Opportunities